sensor_id;sensor_type;location;lat;lon;timestamp;P1;durP1;ratioP1;P2;durP2;ratioP2
3627;SDS011;1830;49.000;12.074;2023-01-01T00:01:22;216.33;;;126.47;;
3627;SDS011;1830;49.000;12.074;2023-01-01T00:03:49;223.57;;;133.27;;
3627;SDS011;1830;49.000;12.074;2023-01-01T00:06:16;210.37;;;127.10;;
3627;SDS011;1830;49.000;12.074;2023-01-01T00:08:45;204.13;;;121.17;;
3627;SDS011;1830;49.000;12.074;2023-01-01T00:11:12;218.50;;;121.47;;
3627;SDS011;1830;49.000;12.074;2023-01-01T00:13:39;204.10;;;121.17;;
3627;SDS011;1830;49.000;12.074;2023-01-01T00:16:07;189.33;;;115.53;;
3627;SDS011;1830;49.000;12.074;2023-01-01T00:18:36;227.13;;;130.63;;
3627;SDS011;1830;49.000;12.074;2023-01-01T00:21:03;198.13;;;120.10;;
3627;SDS011;1830;49.000;12.074;2023-01-01T00:23:30;169.57;;;99.13;;
3627;SDS011;1830;49.000;12.074;2023-01-01T00:25:58;141.60;;;90.00;;
3627;SDS011;1830;49.000;12.074;2023-01-01T00:28:25;143.43;;;80.90;;
3627;SDS011;1830;49.000;12.074;2023-01-01T00:30:52;128.83;;;76.60;;
3627;SDS011;1830;49.000;12.074;2023-01-01T00:33:19;133.20;;;78.80;;
3627;SDS011;1830;49.000;12.074;2023-01-01T00:35:46;117.03;;;69.83;;
3627;SDS011;1830;49.000;12.074;2023-01-01T00:38:13;114.60;;;71.57;;
3627;SDS011;1830;49.000;12.074;2023-01-01T00:40:40;108.43;;;67.70;;
3627;SDS011;1830;49.000;12.074;2023-01-01T00:43:08;113.30;;;65.40;;
3627;SDS011;1830;49.000;12.074;2023-01-01T00:48:57;98.90;;;56.77;;
3627;SDS011;1830;49.000;12.074;2023-01-01T00:51:23;112.17;;;59.37;;
3627;SDS011;1830;49.000;12.074;2023-01-01T00:53:50;99.37;;;57.97;;
3627;SDS011;1830;49.000;12.074;2023-01-01T00:56:17;94.83;;;55.17;;
3627;SDS011;1830;49.000;12.074;2023-01-01T00:58:45;101.10;;;56.63;;
3627;SDS011;1830;49.000;12.074;2023-01-01T01:01:12;92.83;;;53.50;;
3627;SDS011;1830;49.000;12.074;2023-01-01T01:03:39;85.00;;;51.77;;
3627;SDS011;1830;49.000;12.074;2023-01-01T01:06:07;84.50;;;50.27;;
3627;SDS011;1830;49.000;12.074;2023-01-01T01:08:37;83.00;;;52.50;;
3627;SDS011;1830;49.000;12.074;2023-01-01T01:11:05;88.33;;;53.73;;
3627;SDS011;1830;49.000;12.074;2023-01-01T01:13:33;95.70;;;52.67;;
3627;SDS011;1830;49.000;12.074;2023-01-01T01:16:01;90.13;;;55.67;;
3627;SDS011;1830;49.000;12.074;2023-01-01T01:18:34;93.77;;;55.10;;
3627;SDS011;1830;49.000;12.074;2023-01-01T01:21:01;95.70;;;54.50;;
3627;SDS011;1830;49.000;12.074;2023-01-01T01:23:28;99.90;;;57.00;;
3627;SDS011;1830;49.000;12.074;2023-01-01T01:26:04;98.07;;;57.20;;
3627;SDS011;1830;49.000;12.074;2023-01-01T01:28:32;109.17;;;58.10;;
3627;SDS011;1830;49.000;12.074;2023-01-01T01:30:58;100.30;;;59.23;;
3627;SDS011;1830;49.000;12.074;2023-01-01T01:33:27;110.73;;;60.30;;
3627;SDS011;1830;49.000;12.074;2023-01-01T01:35:53;114.47;;;62.73;;
3627;SDS011;1830;49.000;12.074;2023-01-01T01:38:20;104.37;;;56.33;;
3627;SDS011;1830;49.000;12.074;2023-01-01T01:40:47;105.57;;;59.33;;
3627;SDS011;1830;49.000;12.074;2023-01-01T01:43:17;107.37;;;59.07;;
3627;SDS011;1830;49.000;12.074;2023-01-01T01:45:47;100.83;;;59.27;;
3627;SDS011;1830;49.000;12.074;2023-01-01T01:48:16;103.17;;;60.20;;
3627;SDS011;1830;49.000;12.074;2023-01-01T01:50:43;109.43;;;60.07;;
3627;SDS011;1830;49.000;12.074;2023-01-01T01:53:13;106.20;;;60.53;;
3627;SDS011;1830;49.000;12.074;2023-01-01T01:55:44;101.03;;;59.70;;
3627;SDS011;1830;49.000;12.074;2023-01-01T01:58:15;116.73;;;61.43;;
3627;SDS011;1830;49.000;12.074;2023-01-01T02:00:43;108.80;;;59.97;;
3627;SDS011;1830;49.000;12.074;2023-01-01T02:03:10;108.03;;;59.77;;
3627;SDS011;1830;49.000;12.074;2023-01-01T02:05:41;104.90;;;62.00;;
3627;SDS011;1830;49.000;12.074;2023-01-01T02:08:09;101.67;;;61.10;;
3627;SDS011;1830;49.000;12.074;2023-01-01T02:10:38;105.80;;;60.40;;
3627;SDS011;1830;49.000;12.074;2023-01-01T02:13:05;112.00;;;61.40;;
3627;SDS011;1830;49.000;12.074;2023-01-01T02:15:33;114.80;;;61.03;;
3627;SDS011;1830;49.000;12.074;2023-01-01T02:18:05;101.80;;;60.10;;
3627;SDS011;1830;49.000;12.074;2023-01-01T02:20:40;108.83;;;62.43;;
3627;SDS011;1830;49.000;12.074;2023-01-01T02:23:24;112.30;;;60.30;;
3627;SDS011;1830;49.000;12.074;2023-01-01T02:26:07;112.87;;;62.13;;
3627;SDS011;1830;49.000;12.074;2023-01-01T02:28:49;103.50;;;59.93;;
3627;SDS011;1830;49.000;12.074;2023-01-01T02:31:22;104.40;;;61.20;;
3627;SDS011;1830;49.000;12.074;2023-01-01T02:33:52;102.03;;;58.83;;
3627;SDS011;1830;49.000;12.074;2023-01-01T02:36:23;103.13;;;57.97;;
3627;SDS011;1830;49.000;12.074;2023-01-01T02:38:52;103.80;;;58.37;;
3627;SDS011;1830;49.000;12.074;2023-01-01T02:41:23;111.50;;;60.87;;
3627;SDS011;1830;49.000;12.074;2023-01-01T02:43:53;105.63;;;61.87;;
3627;SDS011;1830;49.000;12.074;2023-01-01T02:46:20;109.20;;;60.30;;
3627;SDS011;1830;49.000;12.074;2023-01-01T02:48:49;115.13;;;60.53;;
3627;SDS011;1830;49.000;12.074;2023-01-01T02:51:19;113.57;;;62.07;;
3627;SDS011;1830;49.000;12.074;2023-01-01T02:53:55;108.07;;;60.20;;
3627;SDS011;1830;49.000;12.074;2023-01-01T02:56:29;106.83;;;60.20;;
3627;SDS011;1830;49.000;12.074;2023-01-01T02:59:04;111.60;;;60.63;;
3627;SDS011;1830;49.000;12.074;2023-01-01T03:02:03;115.30;;;63.07;;
3627;SDS011;1830;49.000;12.074;2023-01-01T03:04:40;118.53;;;69.73;;
3627;SDS011;1830;49.000;12.074;2023-01-01T03:07:16;127.83;;;67.30;;
3627;SDS011;1830;49.000;12.074;2023-01-01T03:09:52;116.83;;;67.57;;
3627;SDS011;1830;49.000;12.074;2023-01-01T03:12:26;126.60;;;71.90;;
3627;SDS011;1830;49.000;12.074;2023-01-01T03:15:07;134.50;;;71.30;;
3627;SDS011;1830;49.000;12.074;2023-01-01T03:17:40;133.20;;;71.47;;
3627;SDS011;1830;49.000;12.074;2023-01-01T03:20:16;125.63;;;73.20;;
3627;SDS011;1830;49.000;12.074;2023-01-01T03:22:46;119.73;;;71.37;;
3627;SDS011;1830;49.000;12.074;2023-01-01T03:25:15;127.80;;;72.47;;
3627;SDS011;1830;49.000;12.074;2023-01-01T03:27:48;127.50;;;71.10;;
3627;SDS011;1830;49.000;12.074;2023-01-01T03:30:19;125.33;;;72.33;;
3627;SDS011;1830;49.000;12.074;2023-01-01T03:32:47;130.23;;;71.50;;
3627;SDS011;1830;49.000;12.074;2023-01-01T03:35:29;129.83;;;74.57;;
3627;SDS011;1830;49.000;12.074;2023-01-01T03:38:02;132.73;;;73.60;;
3627;SDS011;1830;49.000;12.074;2023-01-01T03:40:33;126.17;;;75.10;;
3627;SDS011;1830;49.000;12.074;2023-01-01T03:43:04;154.60;;;79.07;;
3627;SDS011;1830;49.000;12.074;2023-01-01T03:45:39;144.10;;;78.20;;
3627;SDS011;1830;49.000;12.074;2023-01-01T03:48:09;141.97;;;78.67;;
3627;SDS011;1830;49.000;12.074;2023-01-01T03:50:39;139.17;;;77.07;;
3627;SDS011;1830;49.000;12.074;2023-01-01T03:53:17;136.80;;;81.27;;
3627;SDS011;1830;49.000;12.074;2023-01-01T03:55:49;143.90;;;78.10;;
3627;SDS011;1830;49.000;12.074;2023-01-01T03:58:25;136.27;;;76.63;;
3627;SDS011;1830;49.000;12.074;2023-01-01T04:01:01;135.70;;;75.67;;
3627;SDS011;1830;49.000;12.074;2023-01-01T04:03:34;146.50;;;82.03;;
3627;SDS011;1830;49.000;12.074;2023-01-01T04:06:03;137.97;;;75.33;;
3627;SDS011;1830;49.000;12.074;2023-01-01T04:08:31;158.87;;;78.87;;
3627;SDS011;1830;49.000;12.074;2023-01-01T04:10:58;155.37;;;83.67;;
3627;SDS011;1830;49.000;12.074;2023-01-01T04:13:49;148.33;;;75.93;;
3627;SDS011;1830;49.000;12.074;2023-01-01T04:16:17;159.00;;;81.80;;
3627;SDS011;1830;49.000;12.074;2023-01-01T04:18:43;145.50;;;81.43;;
3627;SDS011;1830;49.000;12.074;2023-01-01T04:21:10;143.37;;;79.57;;
3627;SDS011;1830;49.000;12.074;2023-01-01T04:23:37;145.37;;;79.10;;
3627;SDS011;1830;49.000;12.074;2023-01-01T04:26:04;140.50;;;77.27;;
3627;SDS011;1830;49.000;12.074;2023-01-01T04:28:31;139.67;;;73.83;;
3627;SDS011;1830;49.000;12.074;2023-01-01T04:31:00;144.67;;;76.07;;
3627;SDS011;1830;49.000;12.074;2023-01-01T04:33:28;151.60;;;79.90;;
3627;SDS011;1830;49.000;12.074;2023-01-01T04:35:54;143.50;;;77.60;;
3627;SDS011;1830;49.000;12.074;2023-01-01T04:38:21;144.43;;;73.37;;
3627;SDS011;1830;49.000;12.074;2023-01-01T04:40:56;147.43;;;77.90;;
3627;SDS011;1830;49.000;12.074;2023-01-01T04:43:23;146.77;;;71.20;;
3627;SDS011;1830;49.000;12.074;2023-01-01T04:45:53;131.10;;;70.77;;
3627;SDS011;1830;49.000;12.074;2023-01-01T04:48:20;132.57;;;74.23;;
3627;SDS011;1830;49.000;12.074;2023-01-01T04:50:53;131.17;;;71.57;;
3627;SDS011;1830;49.000;12.074;2023-01-01T04:53:21;129.63;;;70.23;;
3627;SDS011;1830;49.000;12.074;2023-01-01T04:55:48;122.60;;;69.73;;
3627;SDS011;1830;49.000;12.074;2023-01-01T04:58:14;127.30;;;71.50;;
3627;SDS011;1830;49.000;12.074;2023-01-01T05:00:41;124.83;;;68.57;;
3627;SDS011;1830;49.000;12.074;2023-01-01T05:03:08;140.03;;;72.20;;
3627;SDS011;1830;49.000;12.074;2023-01-01T05:05:35;127.37;;;72.17;;
3627;SDS011;1830;49.000;12.074;2023-01-01T05:08:03;136.13;;;71.80;;
3627;SDS011;1830;49.000;12.074;2023-01-01T05:10:30;140.67;;;76.37;;
3627;SDS011;1830;49.000;12.074;2023-01-01T05:12:56;140.20;;;74.60;;
3627;SDS011;1830;49.000;12.074;2023-01-01T05:15:23;140.33;;;74.67;;
3627;SDS011;1830;49.000;12.074;2023-01-01T05:17:50;149.50;;;75.87;;
3627;SDS011;1830;49.000;12.074;2023-01-01T05:20:17;144.63;;;78.60;;
3627;SDS011;1830;49.000;12.074;2023-01-01T05:22:44;147.97;;;77.10;;
3627;SDS011;1830;49.000;12.074;2023-01-01T05:25:13;145.60;;;77.17;;
3627;SDS011;1830;49.000;12.074;2023-01-01T05:27:39;136.97;;;71.70;;
3627;SDS011;1830;49.000;12.074;2023-01-01T05:30:06;148.27;;;76.10;;
3627;SDS011;1830;49.000;12.074;2023-01-01T05:32:35;142.20;;;77.37;;
3627;SDS011;1830;49.000;12.074;2023-01-01T05:35:01;142.80;;;76.80;;
3627;SDS011;1830;49.000;12.074;2023-01-01T05:37:28;130.90;;;73.43;;
3627;SDS011;1830;49.000;12.074;2023-01-01T05:39:55;148.10;;;74.33;;
3627;SDS011;1830;49.000;12.074;2023-01-01T05:42:23;127.07;;;72.57;;
3627;SDS011;1830;49.000;12.074;2023-01-01T05:44:50;138.43;;;71.23;;
3627;SDS011;1830;49.000;12.074;2023-01-01T05:47:17;133.00;;;74.33;;
3627;SDS011;1830;49.000;12.074;2023-01-01T05:49:45;138.13;;;74.30;;
3627;SDS011;1830;49.000;12.074;2023-01-01T05:52:12;135.63;;;72.20;;
3627;SDS011;1830;49.000;12.074;2023-01-01T05:54:38;144.77;;;73.10;;
3627;SDS011;1830;49.000;12.074;2023-01-01T05:57:05;128.07;;;69.93;;
3627;SDS011;1830;49.000;12.074;2023-01-01T05:59:33;127.27;;;68.20;;
3627;SDS011;1830;49.000;12.074;2023-01-01T06:02:00;137.20;;;68.20;;
3627;SDS011;1830;49.000;12.074;2023-01-01T06:04:27;137.17;;;69.67;;
3627;SDS011;1830;49.000;12.074;2023-01-01T06:06:53;132.70;;;68.27;;
3627;SDS011;1830;49.000;12.074;2023-01-01T06:09:20;126.87;;;66.70;;
3627;SDS011;1830;49.000;12.074;2023-01-01T06:11:47;133.67;;;71.10;;
3627;SDS011;1830;49.000;12.074;2023-01-01T06:14:14;133.27;;;70.53;;
3627;SDS011;1830;49.000;12.074;2023-01-01T06:16:42;147.67;;;72.60;;
3627;SDS011;1830;49.000;12.074;2023-01-01T06:19:08;131.90;;;70.30;;
3627;SDS011;1830;49.000;12.074;2023-01-01T06:21:35;131.33;;;70.60;;
3627;SDS011;1830;49.000;12.074;2023-01-01T06:24:02;136.43;;;68.83;;
3627;SDS011;1830;49.000;12.074;2023-01-01T06:26:30;140.10;;;72.97;;
3627;SDS011;1830;49.000;12.074;2023-01-01T06:28:58;137.80;;;70.40;;
3627;SDS011;1830;49.000;12.074;2023-01-01T06:31:26;138.70;;;71.20;;
3627;SDS011;1830;49.000;12.074;2023-01-01T06:33:55;136.17;;;69.50;;
3627;SDS011;1830;49.000;12.074;2023-01-01T06:36:23;134.83;;;67.77;;
3627;SDS011;1830;49.000;12.074;2023-01-01T06:38:51;137.23;;;67.10;;
3627;SDS011;1830;49.000;12.074;2023-01-01T06:41:21;127.63;;;63.50;;
3627;SDS011;1830;49.000;12.074;2023-01-01T06:43:49;122.63;;;63.73;;
3627;SDS011;1830;49.000;12.074;2023-01-01T06:46:16;134.50;;;68.53;;
3627;SDS011;1830;49.000;12.074;2023-01-01T06:48:45;137.43;;;67.17;;
3627;SDS011;1830;49.000;12.074;2023-01-01T06:51:15;124.33;;;66.33;;
3627;SDS011;1830;49.000;12.074;2023-01-01T06:53:43;138.50;;;68.10;;
3627;SDS011;1830;49.000;12.074;2023-01-01T06:56:10;132.93;;;67.17;;
3627;SDS011;1830;49.000;12.074;2023-01-01T06:58:37;128.80;;;67.40;;
3627;SDS011;1830;49.000;12.074;2023-01-01T07:01:04;138.33;;;68.30;;
3627;SDS011;1830;49.000;12.074;2023-01-01T07:03:31;132.10;;;66.77;;
3627;SDS011;1830;49.000;12.074;2023-01-01T07:05:58;141.13;;;69.63;;
3627;SDS011;1830;49.000;12.074;2023-01-01T07:08:27;134.67;;;64.07;;
3627;SDS011;1830;49.000;12.074;2023-01-01T07:10:54;129.13;;;65.27;;
3627;SDS011;1830;49.000;12.074;2023-01-01T07:13:21;129.17;;;64.13;;
3627;SDS011;1830;49.000;12.074;2023-01-01T07:15:48;118.40;;;62.37;;
3627;SDS011;1830;49.000;12.074;2023-01-01T07:18:15;130.70;;;66.50;;
3627;SDS011;1830;49.000;12.074;2023-01-01T07:20:42;122.60;;;62.90;;
3627;SDS011;1830;49.000;12.074;2023-01-01T07:23:09;137.03;;;64.30;;
3627;SDS011;1830;49.000;12.074;2023-01-01T07:25:38;122.80;;;64.07;;
3627;SDS011;1830;49.000;12.074;2023-01-01T07:28:06;115.23;;;61.37;;
3627;SDS011;1830;49.000;12.074;2023-01-01T07:30:33;117.10;;;61.67;;
3627;SDS011;1830;49.000;12.074;2023-01-01T07:32:59;119.87;;;61.03;;
3627;SDS011;1830;49.000;12.074;2023-01-01T07:35:26;111.67;;;58.53;;
3627;SDS011;1830;49.000;12.074;2023-01-01T07:37:53;109.73;;;58.13;;
3627;SDS011;1830;49.000;12.074;2023-01-01T07:40:20;110.47;;;58.67;;
3627;SDS011;1830;49.000;12.074;2023-01-01T07:42:48;108.13;;;60.20;;
3627;SDS011;1830;49.000;12.074;2023-01-01T07:45:15;118.90;;;60.90;;
3627;SDS011;1830;49.000;12.074;2023-01-01T07:47:41;114.90;;;60.00;;
3627;SDS011;1830;49.000;12.074;2023-01-01T07:50:12;111.80;;;60.17;;
3627;SDS011;1830;49.000;12.074;2023-01-01T07:52:41;109.13;;;57.40;;
3627;SDS011;1830;49.000;12.074;2023-01-01T07:55:10;116.57;;;58.83;;
3627;SDS011;1830;49.000;12.074;2023-01-01T07:57:37;108.17;;;59.27;;
3627;SDS011;1830;49.000;12.074;2023-01-01T08:00:06;102.80;;;58.77;;
3627;SDS011;1830;49.000;12.074;2023-01-01T08:02:33;114.33;;;60.80;;
3627;SDS011;1830;49.000;12.074;2023-01-01T08:05:00;113.13;;;60.17;;
3627;SDS011;1830;49.000;12.074;2023-01-01T08:07:27;97.53;;;56.97;;
3627;SDS011;1830;49.000;12.074;2023-01-01T08:09:54;110.80;;;58.20;;
3627;SDS011;1830;49.000;12.074;2023-01-01T08:12:20;109.87;;;60.27;;
3627;SDS011;1830;49.000;12.074;2023-01-01T08:14:47;112.07;;;58.73;;
3627;SDS011;1830;49.000;12.074;2023-01-01T08:17:15;109.93;;;56.97;;
3627;SDS011;1830;49.000;12.074;2023-01-01T08:19:42;102.10;;;57.80;;
3627;SDS011;1830;49.000;12.074;2023-01-01T08:22:10;106.17;;;58.10;;
3627;SDS011;1830;49.000;12.074;2023-01-01T08:24:37;109.07;;;57.77;;
3627;SDS011;1830;49.000;12.074;2023-01-01T08:27:04;97.50;;;56.67;;
3627;SDS011;1830;49.000;12.074;2023-01-01T08:29:31;108.27;;;58.37;;
3627;SDS011;1830;49.000;12.074;2023-01-01T08:31:58;102.77;;;57.50;;
3627;SDS011;1830;49.000;12.074;2023-01-01T08:34:26;103.30;;;58.43;;
3627;SDS011;1830;49.000;12.074;2023-01-01T08:36:53;107.47;;;59.90;;
3627;SDS011;1830;49.000;12.074;2023-01-01T08:39:19;100.87;;;55.70;;
3627;SDS011;1830;49.000;12.074;2023-01-01T08:41:46;112.80;;;57.33;;
3627;SDS011;1830;49.000;12.074;2023-01-01T08:44:13;96.97;;;54.47;;
3627;SDS011;1830;49.000;12.074;2023-01-01T08:46:39;101.20;;;54.20;;
3627;SDS011;1830;49.000;12.074;2023-01-01T08:49:06;96.40;;;53.90;;
3627;SDS011;1830;49.000;12.074;2023-01-01T08:51:34;100.27;;;56.40;;
3627;SDS011;1830;49.000;12.074;2023-01-01T08:54:01;96.00;;;52.80;;
3627;SDS011;1830;49.000;12.074;2023-01-01T08:56:28;98.03;;;56.57;;
3627;SDS011;1830;49.000;12.074;2023-01-01T08:58:55;99.17;;;55.60;;
3627;SDS011;1830;49.000;12.074;2023-01-01T09:01:21;102.33;;;52.83;;
3627;SDS011;1830;49.000;12.074;2023-01-01T09:03:51;93.33;;;53.13;;
3627;SDS011;1830;49.000;12.074;2023-01-01T09:06:18;96.50;;;54.13;;
3627;SDS011;1830;49.000;12.074;2023-01-01T09:08:46;93.70;;;52.87;;
3627;SDS011;1830;49.000;12.074;2023-01-01T09:11:14;93.90;;;53.27;;
3627;SDS011;1830;49.000;12.074;2023-01-01T09:13:48;86.90;;;51.20;;
3627;SDS011;1830;49.000;12.074;2023-01-01T09:16:14;98.27;;;54.37;;
3627;SDS011;1830;49.000;12.074;2023-01-01T09:18:41;98.50;;;54.03;;
3627;SDS011;1830;49.000;12.074;2023-01-01T09:21:08;97.23;;;54.53;;
3627;SDS011;1830;49.000;12.074;2023-01-01T09:23:35;93.50;;;51.93;;
3627;SDS011;1830;49.000;12.074;2023-01-01T09:26:03;88.23;;;51.30;;
3627;SDS011;1830;49.000;12.074;2023-01-01T09:28:31;85.17;;;50.13;;
3627;SDS011;1830;49.000;12.074;2023-01-01T09:30:58;83.47;;;50.60;;
3627;SDS011;1830;49.000;12.074;2023-01-01T09:33:25;89.57;;;50.33;;
3627;SDS011;1830;49.000;12.074;2023-01-01T09:35:52;85.03;;;51.77;;
3627;SDS011;1830;49.000;12.074;2023-01-01T09:38:19;93.33;;;50.30;;
3627;SDS011;1830;49.000;12.074;2023-01-01T09:40:47;83.87;;;50.00;;
3627;SDS011;1830;49.000;12.074;2023-01-01T09:43:24;97.00;;;51.53;;
3627;SDS011;1830;49.000;12.074;2023-01-01T09:46:00;91.10;;;50.93;;
3627;SDS011;1830;49.000;12.074;2023-01-01T09:48:30;80.83;;;48.60;;
3627;SDS011;1830;49.000;12.074;2023-01-01T09:50:58;83.20;;;49.30;;
3627;SDS011;1830;49.000;12.074;2023-01-01T09:53:29;97.63;;;48.97;;
3627;SDS011;1830;49.000;12.074;2023-01-01T09:55:59;79.50;;;47.30;;
3627;SDS011;1830;49.000;12.074;2023-01-01T09:58:30;82.87;;;49.00;;
3627;SDS011;1830;49.000;12.074;2023-01-01T10:01:00;77.63;;;47.07;;
3627;SDS011;1830;49.000;12.074;2023-01-01T10:03:34;79.00;;;47.97;;
3627;SDS011;1830;49.000;12.074;2023-01-01T10:06:12;83.80;;;48.30;;
3627;SDS011;1830;49.000;12.074;2023-01-01T10:08:58;76.93;;;46.60;;
3627;SDS011;1830;49.000;12.074;2023-01-01T10:11:35;84.30;;;48.67;;
3627;SDS011;1830;49.000;12.074;2023-01-01T10:14:13;76.80;;;48.10;;
3627;SDS011;1830;49.000;12.074;2023-01-01T10:16:44;85.30;;;48.80;;
3627;SDS011;1830;49.000;12.074;2023-01-01T10:19:19;81.07;;;50.20;;
3627;SDS011;1830;49.000;12.074;2023-01-01T10:21:51;85.73;;;49.67;;
3627;SDS011;1830;49.000;12.074;2023-01-01T10:24:32;84.53;;;50.67;;
3627;SDS011;1830;49.000;12.074;2023-01-01T10:27:04;78.80;;;47.33;;
3627;SDS011;1830;49.000;12.074;2023-01-01T10:29:35;79.57;;;49.57;;
3627;SDS011;1830;49.000;12.074;2023-01-01T10:32:14;76.83;;;48.33;;
3627;SDS011;1830;49.000;12.074;2023-01-01T10:34:44;76.37;;;46.43;;
3627;SDS011;1830;49.000;12.074;2023-01-01T10:37:11;78.30;;;46.17;;
3627;SDS011;1830;49.000;12.074;2023-01-01T10:39:40;80.80;;;48.77;;
3627;SDS011;1830;49.000;12.074;2023-01-01T10:42:09;78.83;;;48.13;;
3627;SDS011;1830;49.000;12.074;2023-01-01T10:44:39;79.23;;;46.93;;
3627;SDS011;1830;49.000;12.074;2023-01-01T10:47:13;82.07;;;46.47;;
3627;SDS011;1830;49.000;12.074;2023-01-01T10:49:55;80.80;;;47.97;;
3627;SDS011;1830;49.000;12.074;2023-01-01T10:52:24;74.33;;;45.67;;
3627;SDS011;1830;49.000;12.074;2023-01-01T10:54:55;75.43;;;47.07;;
3627;SDS011;1830;49.000;12.074;2023-01-01T10:57:28;77.30;;;46.80;;
3627;SDS011;1830;49.000;12.074;2023-01-01T11:00:18;74.87;;;46.40;;
3627;SDS011;1830;49.000;12.074;2023-01-01T11:02:47;79.23;;;46.77;;
3627;SDS011;1830;49.000;12.074;2023-01-01T11:05:36;80.53;;;46.60;;
3627;SDS011;1830;49.000;12.074;2023-01-01T11:08:13;74.27;;;46.10;;
3627;SDS011;1830;49.000;12.074;2023-01-01T11:10:48;74.37;;;45.60;;
3627;SDS011;1830;49.000;12.074;2023-01-01T11:13:16;73.43;;;45.50;;
3627;SDS011;1830;49.000;12.074;2023-01-01T11:15:45;72.70;;;44.07;;
3627;SDS011;1830;49.000;12.074;2023-01-01T11:18:13;75.07;;;45.17;;
3627;SDS011;1830;49.000;12.074;2023-01-01T11:20:41;75.60;;;46.77;;
3627;SDS011;1830;49.000;12.074;2023-01-01T11:23:19;74.13;;;45.57;;
3627;SDS011;1830;49.000;12.074;2023-01-01T11:26:00;75.63;;;46.17;;
3627;SDS011;1830;49.000;12.074;2023-01-01T11:28:30;76.10;;;46.80;;
3627;SDS011;1830;49.000;12.074;2023-01-01T11:31:02;73.13;;;45.10;;
3627;SDS011;1830;49.000;12.074;2023-01-01T11:33:42;65.93;;;42.40;;
3627;SDS011;1830;49.000;12.074;2023-01-01T11:36:18;63.97;;;41.90;;
3627;SDS011;1830;49.000;12.074;2023-01-01T11:38:47;68.80;;;42.97;;
3627;SDS011;1830;49.000;12.074;2023-01-01T11:41:16;70.60;;;43.57;;
3627;SDS011;1830;49.000;12.074;2023-01-01T11:43:43;67.20;;;43.47;;
3627;SDS011;1830;49.000;12.074;2023-01-01T11:46:15;76.13;;;44.10;;
3627;SDS011;1830;49.000;12.074;2023-01-01T11:48:47;64.60;;;41.10;;
3627;SDS011;1830;49.000;12.074;2023-01-01T11:51:26;64.87;;;40.80;;
3627;SDS011;1830;49.000;12.074;2023-01-01T11:54:06;59.97;;;38.87;;
3627;SDS011;1830;49.000;12.074;2023-01-01T11:56:45;63.27;;;40.40;;
3627;SDS011;1830;49.000;12.074;2023-01-01T11:59:15;65.63;;;40.77;;
3627;SDS011;1830;49.000;12.074;2023-01-01T12:01:48;62.60;;;39.83;;
3627;SDS011;1830;49.000;12.074;2023-01-01T12:04:20;64.00;;;41.67;;
3627;SDS011;1830;49.000;12.074;2023-01-01T12:06:52;64.73;;;40.60;;
3627;SDS011;1830;49.000;12.074;2023-01-01T12:09:23;61.53;;;39.20;;
3627;SDS011;1830;49.000;12.074;2023-01-01T12:11:56;69.30;;;43.90;;
3627;SDS011;1830;49.000;12.074;2023-01-01T12:14:30;68.57;;;43.03;;
3627;SDS011;1830;49.000;12.074;2023-01-01T12:17:03;66.00;;;42.20;;
3627;SDS011;1830;49.000;12.074;2023-01-01T12:19:38;66.97;;;41.60;;
3627;SDS011;1830;49.000;12.074;2023-01-01T12:22:13;63.83;;;41.47;;
3627;SDS011;1830;49.000;12.074;2023-01-01T12:24:42;69.13;;;40.90;;
3627;SDS011;1830;49.000;12.074;2023-01-01T12:27:15;66.83;;;43.80;;
3627;SDS011;1830;49.000;12.074;2023-01-01T12:30:00;67.93;;;40.43;;
3627;SDS011;1830;49.000;12.074;2023-01-01T12:32:36;69.70;;;41.00;;
3627;SDS011;1830;49.000;12.074;2023-01-01T12:35:15;64.23;;;40.47;;
3627;SDS011;1830;49.000;12.074;2023-01-01T12:37:55;62.03;;;38.27;;
3627;SDS011;1830;49.000;12.074;2023-01-01T12:40:33;59.97;;;39.90;;
3627;SDS011;1830;49.000;12.074;2023-01-01T12:43:05;58.83;;;38.30;;
3627;SDS011;1830;49.000;12.074;2023-01-01T12:45:43;64.70;;;38.03;;
3627;SDS011;1830;49.000;12.074;2023-01-01T12:48:41;56.67;;;36.37;;
3627;SDS011;1830;49.000;12.074;2023-01-01T12:51:29;57.83;;;37.17;;
3627;SDS011;1830;49.000;12.074;2023-01-01T12:54:03;60.50;;;38.77;;
3627;SDS011;1830;49.000;12.074;2023-01-01T12:56:44;56.80;;;36.27;;
3627;SDS011;1830;49.000;12.074;2023-01-01T12:59:17;56.37;;;34.70;;
3627;SDS011;1830;49.000;12.074;2023-01-01T13:01:48;51.80;;;33.80;;
3627;SDS011;1830;49.000;12.074;2023-01-01T13:04:21;61.00;;;36.00;;
3627;SDS011;1830;49.000;12.074;2023-01-01T13:06:49;56.60;;;35.50;;
3627;SDS011;1830;49.000;12.074;2023-01-01T13:09:17;58.00;;;36.30;;
3627;SDS011;1830;49.000;12.074;2023-01-01T13:11:47;54.67;;;34.87;;
3627;SDS011;1830;49.000;12.074;2023-01-01T13:14:16;58.73;;;35.50;;
3627;SDS011;1830;49.000;12.074;2023-01-01T13:16:44;55.67;;;34.83;;
3627;SDS011;1830;49.000;12.074;2023-01-01T13:19:29;55.43;;;34.10;;
3627;SDS011;1830;49.000;12.074;2023-01-01T13:21:57;58.40;;;35.43;;
3627;SDS011;1830;49.000;12.074;2023-01-01T13:24:25;50.73;;;33.13;;
3627;SDS011;1830;49.000;12.074;2023-01-01T13:26:53;59.27;;;32.87;;
3627;SDS011;1830;49.000;12.074;2023-01-01T13:29:32;51.93;;;33.17;;
3627;SDS011;1830;49.000;12.074;2023-01-01T13:32:01;48.37;;;30.50;;
3627;SDS011;1830;49.000;12.074;2023-01-01T13:34:34;56.93;;;31.73;;
3627;SDS011;1830;49.000;12.074;2023-01-01T13:43:04;47.90;;;30.27;;
3627;SDS011;1830;49.000;12.074;2023-01-01T13:45:41;52.90;;;33.10;;
3627;SDS011;1830;49.000;12.074;2023-01-01T13:48:11;55.93;;;33.67;;
3627;SDS011;1830;49.000;12.074;2023-01-01T13:50:55;45.27;;;30.53;;
3627;SDS011;1830;49.000;12.074;2023-01-01T13:53:47;49.10;;;31.40;;
3627;SDS011;1830;49.000;12.074;2023-01-01T13:56:33;52.57;;;31.30;;
3627;SDS011;1830;49.000;12.074;2023-01-01T13:59:15;49.13;;;31.87;;
3627;SDS011;1830;49.000;12.074;2023-01-01T14:04:48;45.73;;;32.30;;
3627;SDS011;1830;49.000;12.074;2023-01-01T14:07:23;49.30;;;33.30;;
3627;SDS011;1830;49.000;12.074;2023-01-01T14:10:17;57.90;;;32.63;;
3627;SDS011;1830;49.000;12.074;2023-01-01T14:12:49;53.60;;;32.07;;
3627;SDS011;1830;49.000;12.074;2023-01-01T14:15:22;50.47;;;32.90;;
3627;SDS011;1830;49.000;12.074;2023-01-01T14:17:51;49.90;;;32.00;;
3627;SDS011;1830;49.000;12.074;2023-01-01T14:20:21;50.43;;;33.20;;
3627;SDS011;1830;49.000;12.074;2023-01-01T14:22:52;53.23;;;32.87;;
3627;SDS011;1830;49.000;12.074;2023-01-01T14:25:23;55.23;;;32.80;;
3627;SDS011;1830;49.000;12.074;2023-01-01T14:27:52;50.80;;;32.47;;
3627;SDS011;1830;49.000;12.074;2023-01-01T14:30:21;43.97;;;29.40;;
3627;SDS011;1830;49.000;12.074;2023-01-01T14:32:54;49.83;;;30.60;;
3627;SDS011;1830;49.000;12.074;2023-01-01T14:35:22;51.67;;;32.77;;
3627;SDS011;1830;49.000;12.074;2023-01-01T14:37:49;49.53;;;32.10;;
3627;SDS011;1830;49.000;12.074;2023-01-01T14:40:18;45.87;;;31.10;;
3627;SDS011;1830;49.000;12.074;2023-01-01T14:42:52;50.30;;;31.83;;
3627;SDS011;1830;49.000;12.074;2023-01-01T14:45:22;51.57;;;32.60;;
3627;SDS011;1830;49.000;12.074;2023-01-01T14:47:49;52.17;;;30.67;;
3627;SDS011;1830;49.000;12.074;2023-01-01T14:50:21;44.30;;;28.97;;
3627;SDS011;1830;49.000;12.074;2023-01-01T14:52:52;46.47;;;30.37;;
3627;SDS011;1830;49.000;12.074;2023-01-01T14:55:22;49.77;;;30.07;;
3627;SDS011;1830;49.000;12.074;2023-01-01T14:57:54;44.77;;;28.27;;